Flemington, New Jersey
Current Conditions -  °F | °C
As of 7:53 AM on Tuesday 21 Oct 2014 (Local Time) from KSMQ Reporting Station
Overcast Overcast  
Wind Chill: 46°   Ceiling: 5000
Heat Index: 48°   Visibility: 7mi
Dew Point: 45°   Wind: 5mph
Humidity: 89%   Direction: 320°NW
Pressure: 29.89"   Gusts: NA
Location:  40.51°N, 74.86°W
Report Text: KSMQ 211153Z AUTO 32004KT 7SM BKN050 OVC080 09/07 A2989 RMK AO2 RAB33E48 SLP122 P0000 60002 70002 T00890072 10089 20072 55002
Loading
Personal Weather Stations






























Interactive Weather Map
Tropical Storm Tracking
New forecast layout! Learn more

10-Day Weather Forecast

Advertisements
Track Severe Weather on mobile